Newbury, United Kingdom
Current Conditions -  °F | °C
As of 6:50 AM on Thursday 27 Nov 2014 (Local Time) from EGUB Reporting Station
Drizzle Drizzle  
Wind Chill: 45°   Ceiling: 200
Heat Index: 45°   Visibility: 0.5mi
Dew Point: 45°   Wind: 1mph
Humidity: 100%   Direction: 360°N
Pressure: 29.62"   Gusts: NA
Location:  51.4°N, 1.32°W
Report Text: EGUB 270650Z 36001KT 0800 -DZ OVC002 07/07 Q1003 AMB TEMPO 0500 FG RED
Loading
Personal Weather Stations






























Interactive Weather Map New forecast layout! Learn more

10-Day Weather Forecast

Advertisements
Track Severe Weather on mobile